createdAt,value
2023-02-02T00:00:36.251Z,100600.19
2023-02-02T00:03:41.156Z,100617.97
2023-02-02T00:10:02.748Z,100602.91
2023-02-02T00:13:09.203Z,100607.91
2023-02-02T00:16:40.089Z,100605.03
2023-02-02T00:19:44.401Z,100588.91
2023-02-02T00:42:50.642Z,100560.00
2023-02-02T00:45:55.153Z,100555.91
2023-02-02T00:49:02.737Z,100550.63
2023-02-02T00:52:06.318Z,100539.69
2023-02-02T00:55:15.552Z,100543.84
2023-02-02T01:01:43.548Z,100512.16
2023-02-02T01:08:04.107Z,100534.94
2023-02-02T01:11:15.332Z,100530.06
2023-02-02T01:24:27.750Z,100512.53
2023-02-02T01:30:54.926Z,100508.84
2023-02-02T01:40:35.735Z,100505.28
2023-02-02T01:47:18.136Z,100504.44
2023-02-02T01:50:28.720Z,100496.84
2023-02-02T01:53:35.744Z,100492.44
2023-02-02T01:56:47.692Z,100504.59
2023-02-02T02:06:53.763Z,100513.47
2023-02-02T02:13:56.735Z,100512.31
2023-02-02T02:44:16.475Z,100522.81
2023-02-02T02:50:39.287Z,100523.09
2023-02-02T02:53:48.802Z,100528.47
2023-02-02T03:28:29.784Z,100517.19
2023-02-02T03:31:34.445Z,100518.06
2023-02-02T03:34:48.085Z,100514.22
2023-02-02T03:37:51.143Z,100513.41
2023-02-02T03:40:54.544Z,100503.94
2023-02-02T03:44:10.438Z,100501.88
2023-02-02T03:47:14.600Z,100501.09
2023-02-02T03:50:18.188Z,100509.34
2023-02-02T03:53:29.365Z,100506.63
2023-02-02T03:56:31.796Z,100502.09
2023-02-02T03:59:36.304Z,100498.22
2023-02-02T04:02:40.449Z,100508.81
2023-02-02T04:05:45.480Z,100503.94
2023-02-02T04:08:48.156Z,100506.78
2023-02-02T04:12:03.996Z,100509.31
2023-02-02T04:15:11.975Z,100492.69
2023-02-02T04:18:19.669Z,100510.69
2023-02-02T04:24:40.948Z,100486.09
2023-02-02T04:27:44.557Z,100474.25
2023-02-02T04:30:47.287Z,100493.44
2023-02-02T04:33:50.921Z,100487.25
2023-02-02T04:36:54.267Z,100482.78
2023-02-02T04:56:21.887Z,100501.44
2023-02-02T04:59:24.288Z,100497.78
2023-02-02T05:05:44.781Z,100492.97
2023-02-02T05:08:52.895Z,100490.16
2023-02-02T05:11:54.919Z,100476.56
2023-02-02T05:15:01.230Z,100492.81
2023-02-02T05:18:03.407Z,100497.88
2023-02-02T05:21:05.684Z,100488.38
2023-02-02T05:24:10.967Z,100487.38
2023-02-02T05:27:16.830Z,100487.06
2023-02-02T05:30:19.276Z,100494.13
2023-02-02T05:36:40.774Z,100490.25
2023-02-02T05:43:11.383Z,100501.56
2023-02-02T05:46:14.935Z,100510.88
2023-02-02T05:49:17.170Z,100499.06
2023-02-02T05:52:22.991Z,100499.50
2023-02-02T05:55:25.338Z,100486.47
2023-02-02T05:58:28.350Z,100494.72
2023-02-02T06:01:30.796Z,100499.97
2023-02-02T06:04:33.021Z,100503.56
2023-02-02T06:07:36.370Z,100486.69
2023-02-02T06:10:42.544Z,100496.28
2023-02-02T06:13:46.141Z,100502.13
2023-02-02T06:27:21.277Z,100510.19
2023-02-02T06:30:23.612Z,100522.28
2023-02-02T06:33:25.573Z,100531.06
2023-02-02T06:36:28.200Z,100534.44
2023-02-02T06:39:30.366Z,100511.38
2023-02-02T06:42:33.298Z,100517.56
2023-02-02T06:45:40.442Z,100511.09
2023-02-02T06:48:42.971Z,100505.88
2023-02-02T06:51:48.792Z,100516.22
2023-02-02T06:54:51.881Z,100519.41
2023-02-02T06:57:58.045Z,100513.56
2023-02-02T07:01:09.469Z,100505.78
2023-02-02T07:04:11.478Z,100531.06
2023-02-02T07:07:13.520Z,100529.84
2023-02-02T07:11:14.738Z,100518.53
2023-02-02T07:13:38.625Z,100532.13
2023-02-02T07:16:40.937Z,100531.47
2023-02-02T07:19:43.064Z,100532.88
2023-02-02T07:22:45.239Z,100529.16
2023-02-02T07:25:49.516Z,100510.44
2023-02-02T07:28:52.260Z,100516.44
2023-02-02T07:31:55.740Z,100514.28
2023-02-02T07:34:57.910Z,100530.69
2023-02-02T07:38:00.177Z,100527.16
2023-02-02T07:41:07.544Z,100520.25
2023-02-02T07:44:26.714Z,100514.25
2023-02-02T07:47:30.035Z,100514.53
2023-02-02T07:50:32.290Z,100520.19
2023-02-02T07:53:35.885Z,100507.66
2023-02-02T07:56:39.919Z,100495.66
2023-02-02T07:59:42.473Z,100486.53
2023-02-02T08:02:45.411Z,100501.38
2023-02-02T08:05:48.261Z,100490.06
2023-02-02T08:08:52.635Z,100493.16
2023-02-02T08:12:02.131Z,100484.03
2023-02-02T08:15:04.838Z,100493.31
2023-02-02T08:18:08.776Z,100494.13
2023-02-02T08:21:11.631Z,100485.84
2023-02-02T08:24:13.779Z,100499.47
2023-02-02T08:27:17.039Z,100487.47
2023-02-02T08:30:19.171Z,100502.78
2023-02-02T08:33:21.277Z,100508.50
2023-02-02T08:36:26.169Z,100487.81
2023-02-02T08:39:28.350Z,100489.75
2023-02-02T08:42:30.312Z,100489.03
2023-02-02T08:46:01.811Z,100503.03
2023-02-02T08:48:54.275Z,100495.97
2023-02-02T08:51:56.972Z,100493.91
2023-02-02T08:54:59.040Z,100486.53
2023-02-02T08:58:02.435Z,100499.47
2023-02-02T09:01:06.317Z,100490.00
2023-02-02T09:04:16.001Z,100495.66
2023-02-02T09:07:19.857Z,100497.28
2023-02-02T09:10:23.484Z,100497.50
2023-02-02T09:13:25.526Z,100495.66
2023-02-02T09:16:28.219Z,100492.19
2023-02-02T09:19:30.619Z,100480.84
2023-02-02T09:22:33.640Z,100489.56
2023-02-02T09:25:35.714Z,100487.38
2023-02-02T09:28:39.548Z,100476.81
2023-02-02T09:31:42.035Z,100477.47
2023-02-02T09:34:44.024Z,100471.41
2023-02-02T09:37:46.093Z,100459.06
2023-02-02T09:40:48.178Z,100463.34
2023-02-02T09:43:58.083Z,100461.91
2023-02-02T09:47:03.476Z,100459.25
2023-02-02T09:50:09.353Z,100455.88
2023-02-02T09:53:27.822Z,100455.44
2023-02-02T09:56:45.631Z,100455.44
2023-02-02T09:59:50.473Z,100445.06
2023-02-02T10:03:00.111Z,100461.78
2023-02-02T10:06:36.287Z,100462.94
2023-02-02T10:09:39.487Z,100452.06
2023-02-02T10:12:47.866Z,100463.88
2023-02-02T10:16:06.674Z,100457.25
2023-02-02T10:19:15.136Z,100447.47
2023-02-02T10:22:24.794Z,100441.44
2023-02-02T10:25:28.937Z,100439.97
2023-02-02T10:28:39.921Z,100444.94
2023-02-02T10:32:04.501Z,100448.72
2023-02-02T10:35:14.490Z,100441.94
2023-02-02T10:38:29.148Z,100436.72
2023-02-02T10:41:39.757Z,100436.03
2023-02-02T10:44:51.210Z,100438.22
2023-02-02T10:47:53.580Z,100436.50
2023-02-02T10:51:00.505Z,100440.53
2023-02-02T10:54:12.516Z,100428.34
2023-02-02T10:57:18.969Z,100413.50
2023-02-02T11:00:39.234Z,100447.25
2023-02-02T11:03:41.253Z,100452.41
2023-02-02T11:06:49.588Z,100452.63
2023-02-02T11:09:53.144Z,100446.34
2023-02-02T11:12:57.251Z,100449.59
2023-02-02T11:16:14.724Z,100446.00
2023-02-02T11:19:17.027Z,100447.84
2023-02-02T11:22:35.530Z,100451.44
2023-02-02T11:25:39.469Z,100448.44
2023-02-02T11:28:42.239Z,100444.03
2023-02-02T11:31:45.271Z,100440.50
2023-02-02T11:34:47.969Z,100432.75
2023-02-02T11:37:57.569Z,100442.41
2023-02-02T11:41:08.269Z,100441.75
2023-02-02T11:44:24.524Z,100434.47
2023-02-02T11:47:28.841Z,100440.66
2023-02-02T11:50:31.215Z,100439.66
2023-02-02T11:53:36.852Z,100448.06
2023-02-02T11:56:39.813Z,100442.03
2023-02-02T11:59:43.842Z,100441.38
2023-02-02T12:02:48.162Z,100445.34
2023-02-02T12:05:50.491Z,100452.19
2023-02-02T12:09:01.526Z,100451.38
2023-02-02T12:12:25.007Z,100453.88
2023-02-02T12:15:54.455Z,100462.34
2023-02-02T12:19:30.185Z,100461.34
2023-02-02T12:23:11.590Z,100461.75
2023-02-02T12:26:37.256Z,100463.56
2023-02-02T12:30:00.832Z,100465.78
2023-02-02T12:33:29.877Z,100467.38
2023-02-02T12:37:03.493Z,100448.97
2023-02-02T12:40:35.008Z,100473.03
2023-02-02T12:43:43.495Z,100466.22
2023-02-02T12:46:45.509Z,100474.88
2023-02-02T12:50:05.602Z,100477.41
2023-02-02T12:53:18.057Z,100491.31
2023-02-02T12:56:35.995Z,100475.31
2023-02-02T13:00:02.031Z,100488.56
2023-02-02T13:03:19.015Z,100487.47
2023-02-02T13:06:39.269Z,100487.81
2023-02-02T13:09:52.111Z,100485.31
2023-02-02T13:12:58.580Z,100489.63
2023-02-02T13:16:07.845Z,100497.50
2023-02-02T13:19:35.005Z,100493.91
2023-02-02T13:22:44.733Z,100467.25
2023-02-02T13:25:57.131Z,100503.97
2023-02-02T13:29:19.734Z,100489.47
2023-02-02T13:32:25.551Z,100507.44
2023-02-02T13:35:34.622Z,100510.06
2023-02-02T13:38:42.326Z,100504.41
2023-02-02T13:41:45.671Z,100507.66
2023-02-02T13:44:56.044Z,100501.88
2023-02-02T13:48:23.179Z,100504.22
2023-02-02T13:51:47.027Z,100512.16
2023-02-02T13:55:26.948Z,100506.19
2023-02-02T13:58:58.173Z,100515.09
2023-02-02T14:02:01.151Z,100514.41
2023-02-02T14:05:05.830Z,100514.13
2023-02-02T14:08:17.841Z,100524.38
2023-02-02T14:11:31.695Z,100533.22
2023-02-02T14:14:35.781Z,100523.09
2023-02-02T14:17:40.514Z,100529.34
2023-02-02T14:20:45.974Z,100528.22
2023-02-02T14:23:55.926Z,100520.69
2023-02-02T14:27:01.592Z,100524.59
2023-02-02T14:30:20.371Z,100530.31
2023-02-02T14:33:26.047Z,100534.59
2023-02-02T14:36:29.566Z,100529.00
2023-02-02T14:39:38.151Z,100542.16
2023-02-02T14:43:04.433Z,100546.50
2023-02-02T14:46:15.338Z,100542.66
2023-02-02T14:49:25.732Z,100534.72
2023-02-02T14:52:27.891Z,100546.88
2023-02-02T14:55:32.938Z,100552.16
2023-02-02T14:58:38.922Z,100556.22
2023-02-02T15:01:43.982Z,100557.25
2023-02-02T15:04:48.436Z,100559.06
2023-02-02T15:07:56.079Z,100554.34
2023-02-02T15:11:01.978Z,100569.97
2023-02-02T15:14:09.304Z,100573.72
2023-02-02T15:17:32.779Z,100575.72
2023-02-02T15:20:52.299Z,100559.50
2023-02-02T15:23:54.726Z,100569.19
2023-02-02T15:27:00.108Z,100575.66
2023-02-02T15:30:07.536Z,100581.31
2023-02-02T15:33:23.723Z,100584.69
2023-02-02T15:36:41.717Z,100586.84
2023-02-02T15:39:51.915Z,100583.22
2023-02-02T15:43:01.635Z,100594.66
2023-02-02T15:46:12.867Z,100593.38
2023-02-02T15:49:33.179Z,100608.19
2023-02-02T15:52:47.320Z,100597.88
2023-02-02T15:55:52.437Z,100608.03
2023-02-02T15:58:59.743Z,100610.19
2023-02-02T16:02:34.318Z,100611.03
2023-02-02T16:05:36.350Z,100610.25
2023-02-02T16:08:40.988Z,100606.91
2023-02-02T16:11:44.491Z,100620.13
2023-02-02T16:14:49.594Z,100625.19
2023-02-02T16:18:07.970Z,100626.47
2023-02-02T16:21:19.880Z,100622.41
2023-02-02T16:24:23.522Z,100620.34
2023-02-02T16:27:28.628Z,100636.19
2023-02-02T16:30:36.049Z,100649.72
2023-02-02T16:33:43.049Z,100650.63
2023-02-02T16:36:45.216Z,100639.66
2023-02-02T16:39:47.239Z,100636.63
2023-02-02T16:43:05.170Z,100638.75
2023-02-02T16:46:15.320Z,100651.75
2023-02-02T16:49:35.514Z,100651.69
2023-02-02T16:52:58.256Z,100661.94
2023-02-02T16:56:00.319Z,100663.38
2023-02-02T16:59:15.179Z,100664.50
2023-02-02T17:02:30.619Z,100677.50
2023-02-02T17:05:35.226Z,100675.22
2023-02-02T17:08:40.691Z,100680.09
2023-02-02T17:11:57.069Z,100679.38
2023-02-02T17:15:05.248Z,100692.09
2023-02-02T17:18:07.245Z,100689.56
2023-02-02T17:21:16.360Z,100693.09
2023-02-02T17:24:19.733Z,100703.09
2023-02-02T17:27:28.483Z,100710.03
2023-02-02T17:30:30.845Z,100700.06
2023-02-02T17:33:35.362Z,100694.38
2023-02-02T17:36:37.354Z,100705.03
2023-02-02T17:39:39.709Z,100717.09
2023-02-02T17:42:44.313Z,100698.09
2023-02-02T17:45:46.333Z,100716.88
2023-02-02T17:48:48.345Z,100722.00
2023-02-02T17:51:50.873Z,100721.47
2023-02-02T17:54:52.907Z,100729.81
2023-02-02T17:57:55.035Z,100719.41
2023-02-02T18:01:00.453Z,100733.63
2023-02-02T18:04:02.828Z,100735.59
2023-02-02T18:07:07.649Z,100730.47
2023-02-02T18:10:12.610Z,100734.31
2023-02-02T18:13:17.147Z,100741.50
2023-02-02T18:16:20.084Z,100739.66
2023-02-02T18:19:22.653Z,100742.28
2023-02-02T18:22:26.010Z,100729.50
2023-02-02T18:25:28.582Z,100757.63
2023-02-02T18:28:30.853Z,100762.66
2023-02-02T18:31:33.049Z,100733.84
2023-02-02T18:34:36.574Z,100749.69
2023-02-02T18:37:39.035Z,100755.13
2023-02-02T18:40:40.981Z,100770.03
2023-02-02T18:43:45.661Z,100767.53
2023-02-02T18:46:47.728Z,100759.06
2023-02-02T18:49:49.822Z,100756.97
2023-02-02T18:52:51.902Z,100760.13
2023-02-02T18:55:54.254Z,100755.84
2023-02-02T18:58:57.603Z,100765.69
2023-02-02T19:01:59.778Z,100762.28
2023-02-02T19:05:20.389Z,100763.19
2023-02-02T19:08:22.402Z,100765.13
2023-02-02T19:11:29.118Z,100765.66
2023-02-02T19:14:34.569Z,100753.63
2023-02-02T19:17:36.650Z,100760.97
2023-02-02T19:20:38.758Z,100746.00
2023-02-02T19:23:44.479Z,100765.53
2023-02-02T19:26:49.540Z,100766.09
2023-02-02T19:29:55.913Z,100762.78
2023-02-02T19:32:57.868Z,100760.78
2023-02-02T19:36:00.187Z,100763.28
2023-02-02T19:39:12.323Z,100758.78
2023-02-02T19:42:14.371Z,100765.38
2023-02-02T19:45:38.443Z,100766.28
2023-02-02T19:48:43.572Z,100765.09
2023-02-02T19:51:48.664Z,100748.19
2023-02-02T19:54:50.835Z,100755.75
2023-02-02T19:57:54.430Z,100778.91
2023-02-02T20:00:58.180Z,100778.56
2023-02-02T20:04:04.205Z,100786.19
2023-02-02T20:07:14.014Z,100784.31
2023-02-02T20:10:23.438Z,100769.53
2023-02-02T20:13:42.722Z,100769.22
2023-02-02T20:16:50.737Z,100787.91
2023-02-02T20:19:52.952Z,100787.59
2023-02-02T20:22:57.115Z,100777.53
2023-02-02T20:26:03.955Z,100803.59
2023-02-02T20:29:19.021Z,100809.50
2023-02-02T20:32:36.979Z,100814.88
2023-02-02T20:35:41.878Z,100819.63
2023-02-02T20:38:44.733Z,100811.00
2023-02-02T20:41:48.126Z,100826.03
2023-02-02T20:44:50.447Z,100824.66
2023-02-02T20:47:52.601Z,100821.63
2023-02-02T20:50:55.259Z,100816.25
2023-02-02T20:53:57.459Z,100793.66
2023-02-02T20:57:02.268Z,100810.53
2023-02-02T21:00:10.482Z,100807.66
2023-02-02T21:03:13.429Z,100807.66
2023-02-02T21:06:15.484Z,100811.72
2023-02-02T21:09:18.180Z,100802.94
2023-02-02T21:12:24.555Z,100808.19
2023-02-02T21:15:26.743Z,100814.91
2023-02-02T21:18:28.759Z,100816.09
2023-02-02T21:21:30.876Z,100809.69
2023-02-02T21:24:32.851Z,100810.00
2023-02-02T21:27:35.750Z,100805.13
2023-02-02T21:30:37.870Z,100807.66
2023-02-02T21:33:44.124Z,100809.84
2023-02-02T21:36:47.249Z,100806.81
2023-02-02T21:39:51.383Z,100800.75
2023-02-02T21:42:53.483Z,100813.72
2023-02-02T21:45:57.384Z,100823.66
2023-02-02T21:49:00.981Z,100810.69
2023-02-02T21:52:12.747Z,100825.84
2023-02-02T21:55:37.359Z,100828.88
2023-02-02T21:58:39.230Z,100830.06
2023-02-02T22:01:41.520Z,100833.59
2023-02-02T22:04:43.898Z,100825.84
2023-02-02T22:07:48.592Z,100823.47
2023-02-02T22:10:51.047Z,100823.31
2023-02-02T22:13:54.000Z,100813.88
2023-02-02T22:17:00.418Z,100823.31
2023-02-02T22:20:30.986Z,100824.28
2023-02-02T22:23:33.039Z,100826.31
2023-02-02T22:26:35.506Z,100817.06
2023-02-02T22:29:38.149Z,100814.69
2023-02-02T22:32:40.145Z,100828.19
2023-02-02T22:35:43.382Z,100835.97
2023-02-02T22:38:45.465Z,100831.59
2023-02-02T22:41:47.466Z,100842.53
2023-02-02T22:44:49.791Z,100829.34
2023-02-02T22:47:52.757Z,100841.13
2023-02-02T22:50:54.831Z,100839.59
2023-02-02T22:53:57.123Z,100831.25
2023-02-02T22:57:00.804Z,100813.66
2023-02-02T23:00:12.119Z,100823.06
2023-02-02T23:03:14.616Z,100824.28
2023-02-02T23:06:16.715Z,100830.22
2023-02-02T23:09:20.318Z,100815.97
2023-02-02T23:12:23.001Z,100815.88
2023-02-02T23:15:25.378Z,100831.88
2023-02-02T23:18:27.840Z,100828.31
2023-02-02T23:21:30.056Z,100841.09
2023-02-02T23:24:32.638Z,100852.25
2023-02-02T23:27:34.744Z,100843.94
2023-02-02T23:30:37.240Z,100846.94
2023-02-02T23:33:39.274Z,100861.63
2023-02-02T23:36:41.309Z,100863.03
2023-02-02T23:39:43.278Z,100865.50
2023-02-02T23:42:45.660Z,100866.41
2023-02-02T23:45:48.052Z,100865.78
2023-02-02T23:48:50.255Z,100872.22
2023-02-02T23:51:52.431Z,100886.53
2023-02-02T23:54:55.171Z,100898.69
2023-02-02T23:57:57.240Z,100888.38
